ASA297 PANC-PAJN
Flight info
| Callsign | ASA297 |
|---|---|
| Flight time | 1h 19m |
| Altitude | 37000 |
| Route | NOEND CUSHI |
| Aircraft | B738/M-SDE2E3FGHIRWXY/LB1 |
Departure
| Time | 2026-04-15 16:46 |
|---|---|
| Airport | Ted Stevens Anchorage International Airport (PANC) |
Arrival
| Time | 2026-04-15 18:06 |
|---|---|
| Airport | Juneau International Airport (PAJN) |
| Time | Latitude | Longitude | Altitude | Speed | Heading |
|---|---|---|---|---|---|
| 2026-04-15 16:13 | 61.17205 | -149.98476 | 111 ft | 0 kts | 26° |
| 2026-04-15 16:26 | 61.17205 | -149.98477 | 111 ft | 1 kts | 26° |
| 2026-04-15 16:26 | 61.17183 | -149.98497 | 112 ft | 4 kts | 20° |
| 2026-04-15 16:26 | 61.17158 | -149.98514 | 113 ft | 4 kts | 9° |
| 2026-04-15 16:27 | 61.17132 | -149.98516 | 114 ft | 4 kts | 341° |
| 2026-04-15 16:27 | 61.17117 | -149.98493 | 114 ft | 2 kts | 271° |
| 2026-04-15 16:27 | 61.17117 | -149.98481 | 114 ft | 1 kts | 270° |
| 2026-04-15 16:32 | 61.17117 | -149.98504 | 114 ft | 4 kts | 270° |
| 2026-04-15 16:32 | 61.17120 | -149.98608 | 115 ft | 10 kts | 284° |
| 2026-04-15 16:32 | 61.17177 | -149.98733 | 112 ft | 14 kts | 336° |
| 2026-04-15 16:33 | 61.17255 | -149.98789 | 111 ft | 7 kts | 340° |
| 2026-04-15 16:33 | 61.17310 | -149.98832 | 108 ft | 10 kts | 333° |
| 2026-04-15 16:33 | 61.17324 | -149.98980 | 107 ft | 12 kts | 249° |
| 2026-04-15 16:33 | 61.17297 | -149.99138 | 112 ft | 12 kts | 256° |
| 2026-04-15 16:34 | 61.17290 | -149.99301 | 116 ft | 11 kts | 270° |
| 2026-04-15 16:34 | 61.17289 | -149.99460 | 120 ft | 11 kts | 269° |
| 2026-04-15 16:34 | 61.17308 | -149.99603 | 122 ft | 11 kts | 324° |
| 2026-04-15 16:34 | 61.17380 | -149.99651 | 121 ft | 11 kts | 344° |
| 2026-04-15 16:35 | 61.17458 | -149.99693 | 120 ft | 13 kts | 344° |
| 2026-04-15 16:35 | 61.17550 | -149.99744 | 119 ft | 15 kts | 345° |
| 2026-04-15 16:35 | 61.17660 | -149.99806 | 118 ft | 18 kts | 345° |
| 2026-04-15 16:35 | 61.17786 | -149.99877 | 117 ft | 20 kts | 345° |
| 2026-04-15 16:36 | 61.17929 | -149.99957 | 116 ft | 22 kts | 345° |
| 2026-04-15 16:36 | 61.18075 | -150.00037 | 118 ft | 21 kts | 345° |
| 2026-04-15 16:36 | 61.18218 | -150.00116 | 120 ft | 21 kts | 345° |
| 2026-04-15 16:36 | 61.18355 | -150.00194 | 122 ft | 20 kts | 344° |
| 2026-04-15 16:37 | 61.18489 | -150.00270 | 124 ft | 20 kts | 346° |
| 2026-04-15 16:37 | 61.18618 | -150.00342 | 127 ft | 19 kts | 344° |
| 2026-04-15 16:37 | 61.18744 | -150.00411 | 128 ft | 18 kts | 345° |
| 2026-04-15 16:37 | 61.18865 | -150.00479 | 130 ft | 18 kts | 345° |
| 2026-04-15 16:38 | 61.18983 | -150.00546 | 132 ft | 17 kts | 344° |
| 2026-04-15 16:38 | 61.19097 | -150.00611 | 136 ft | 17 kts | 346° |
| 2026-04-15 16:38 | 61.19207 | -150.00671 | 139 ft | 16 kts | 345° |
| 2026-04-15 16:38 | 61.19312 | -150.00730 | 142 ft | 15 kts | 345° |
| 2026-04-15 16:39 | 61.19413 | -150.00787 | 145 ft | 15 kts | 345° |
| 2026-04-15 16:39 | 61.19510 | -150.00842 | 148 ft | 14 kts | 345° |
| 2026-04-15 16:39 | 61.19613 | -150.00900 | 151 ft | 19 kts | 345° |
| 2026-04-15 16:39 | 61.19747 | -150.00972 | 154 ft | 20 kts | 344° |
| 2026-04-15 16:40 | 61.19877 | -150.01050 | 157 ft | 19 kts | 343° |
| 2026-04-15 16:40 | 61.19969 | -150.01106 | 158 ft | 1 kts | 343° |
| 2026-04-15 16:40 | 61.19980 | -150.01118 | 157 ft | 2 kts | 321° |
| 2026-04-15 16:40 | 61.19994 | -150.01168 | 156 ft | 6 kts | 285° |
| 2026-04-15 16:41 | 61.19994 | -150.01173 | 156 ft | 1 kts | 282° |
| 2026-04-15 16:41 | 61.19996 | -150.01203 | 155 ft | 3 kts | 274° |
| 2026-04-15 16:41 | 61.19995 | -150.01231 | 155 ft | 0 kts | 262° |
| 2026-04-15 16:45 | 61.19986 | -150.01311 | 156 ft | 14 kts | 256° |
| 2026-04-15 16:45 | 61.19888 | -150.01403 | 158 ft | 26 kts | 166° |
| 2026-04-15 16:45 | 61.19588 | -150.01236 | 152 ft | 71 kts | 166° |
| 2026-04-15 16:46 | 61.18928 | -150.00866 | 139 ft | 125 kts | 164° |
| 2026-04-15 16:46 | 61.17951 | -150.00303 | 256 ft | 154 kts | 165° |
| 2026-04-15 16:46 | 61.16996 | -149.99729 | 964 ft | 144 kts | 172° |
| 2026-04-15 16:46 | 61.15923 | -149.99155 | 1148 ft | 172 kts | 153° |
| 2026-04-15 16:47 | 61.14890 | -149.97648 | 1429 ft | 192 kts | 150° |
| 2026-04-15 16:47 | 61.13591 | -149.97068 | 1887 ft | 204 kts | 188° |
| 2026-04-15 16:47 | 61.12236 | -149.96929 | 3060 ft | 186 kts | 167° |
| 2026-04-15 16:47 | 61.11130 | -149.95758 | 4216 ft | 181 kts | 140° |
| 2026-04-15 16:48 | 61.10462 | -149.93387 | 4697 ft | 211 kts | 101° |
| 2026-04-15 16:48 | 61.10438 | -149.90179 | 4964 ft | 237 kts | 89° |
| 2026-04-15 16:48 | 61.10524 | -149.86642 | 5372 ft | 253 kts | 88° |
| 2026-04-15 16:48 | 61.10625 | -149.82951 | 5963 ft | 263 kts | 88° |
| 2026-04-15 16:49 | 61.10730 | -149.79016 | 6400 ft | 280 kts | 88° |
| 2026-04-15 16:49 | 61.10835 | -149.74923 | 7217 ft | 287 kts | 88° |
| 2026-04-15 16:49 | 61.10939 | -149.70791 | 8192 ft | 289 kts | 88° |
| 2026-04-15 16:49 | 61.11039 | -149.66621 | 9072 ft | 293 kts | 88° |
| 2026-04-15 16:50 | 61.11138 | -149.62377 | 9907 ft | 298 kts | 88° |
| 2026-04-15 16:50 | 61.11237 | -149.58038 | 10559 ft | 310 kts | 89° |
| 2026-04-15 16:50 | 61.11338 | -149.53401 | 10751 ft | 335 kts | 89° |
| 2026-04-15 16:50 | 61.11443 | -149.48445 | 11118 ft | 351 kts | 89° |
| 2026-04-15 16:51 | 61.11551 | -149.43352 | 11733 ft | 357 kts | 89° |
| 2026-04-15 16:51 | 61.11659 | -149.38192 | 12423 ft | 360 kts | 89° |
| 2026-04-15 16:51 | 61.11766 | -149.33000 | 13080 ft | 364 kts | 89° |
| 2026-04-15 16:51 | 61.11870 | -149.27738 | 13683 ft | 368 kts | 89° |
| 2026-04-15 16:52 | 61.11968 | -149.22420 | 14264 ft | 372 kts | 89° |
| 2026-04-15 16:52 | 61.12069 | -149.17040 | 14819 ft | 375 kts | 89° |
| 2026-04-15 16:52 | 61.12170 | -149.11624 | 15350 ft | 379 kts | 89° |
| 2026-04-15 16:52 | 61.12272 | -149.06153 | 15860 ft | 382 kts | 89° |
| 2026-04-15 16:53 | 61.12372 | -149.00698 | 16337 ft | 386 kts | 89° |
| 2026-04-15 16:53 | 61.12474 | -148.95125 | 16809 ft | 389 kts | 89° |
| 2026-04-15 16:53 | 61.12574 | -148.89503 | 17261 ft | 392 kts | 89° |
| 2026-04-15 16:53 | 61.12672 | -148.83852 | 17689 ft | 395 kts | 89° |
| 2026-04-15 16:54 | 61.12770 | -148.78142 | 18103 ft | 398 kts | 89° |
| 2026-04-15 16:54 | 61.12869 | -148.72385 | 18500 ft | 401 kts | 89° |
| 2026-04-15 16:54 | 61.12969 | -148.66589 | 18874 ft | 404 kts | 89° |
| 2026-04-15 16:54 | 61.13065 | -148.60773 | 19237 ft | 407 kts | 89° |
| 2026-04-15 16:55 | 61.13150 | -148.54899 | 19586 ft | 409 kts | 90° |
| 2026-04-15 16:55 | 61.13180 | -148.48999 | 19920 ft | 411 kts | 94° |
| 2026-04-15 16:55 | 61.12805 | -148.43123 | 20242 ft | 413 kts | 105° |
| 2026-04-15 16:55 | 61.11995 | -148.37400 | 20530 ft | 415 kts | 109° |
| 2026-04-15 16:56 | 61.11097 | -148.31707 | 20803 ft | 418 kts | 110° |
| 2026-04-15 16:56 | 61.10176 | -148.25990 | 21084 ft | 420 kts | 110° |
| 2026-04-15 16:56 | 61.09268 | -148.20313 | 21358 ft | 422 kts | 109° |
| 2026-04-15 16:56 | 61.08355 | -148.14542 | 21614 ft | 424 kts | 109° |
| 2026-04-15 16:57 | 61.07448 | -148.08736 | 21856 ft | 426 kts | 109° |
| 2026-04-15 16:57 | 61.06544 | -148.02903 | 22090 ft | 428 kts | 109° |
| 2026-04-15 16:57 | 61.05638 | -147.97034 | 22315 ft | 429 kts | 109° |
| 2026-04-15 16:57 | 61.04730 | -147.91151 | 22527 ft | 431 kts | 109° |
| 2026-04-15 16:58 | 61.03818 | -147.85254 | 22734 ft | 433 kts | 109° |
| 2026-04-15 16:58 | 61.02900 | -147.79325 | 22931 ft | 434 kts | 109° |
| 2026-04-15 16:58 | 61.01975 | -147.73377 | 23123 ft | 436 kts | 109° |
| 2026-04-15 16:58 | 61.01046 | -147.67429 | 23301 ft | 437 kts | 109° |
| 2026-04-15 16:59 | 61.00109 | -147.61444 | 23472 ft | 439 kts | 109° |
| 2026-04-15 16:59 | 60.99168 | -147.55456 | 23638 ft | 440 kts | 109° |
| 2026-04-15 16:59 | 60.98219 | -147.49446 | 23796 ft | 441 kts | 109° |
| 2026-04-15 16:59 | 60.97269 | -147.43440 | 23948 ft | 443 kts | 109° |
| 2026-04-15 17:00 | 60.96311 | -147.37409 | 24094 ft | 444 kts | 109° |
| 2026-04-15 17:00 | 60.95347 | -147.31361 | 24236 ft | 445 kts | 109° |
| 2026-04-15 17:00 | 60.94378 | -147.25305 | 24369 ft | 446 kts | 109° |
| 2026-04-15 17:00 | 60.93418 | -147.19322 | 24493 ft | 447 kts | 109° |
| 2026-04-15 17:01 | 60.92439 | -147.13246 | 24616 ft | 448 kts | 109° |
| 2026-04-15 17:01 | 60.91455 | -147.07153 | 24733 ft | 449 kts | 110° |
| 2026-04-15 17:01 | 60.90466 | -147.01054 | 24846 ft | 450 kts | 110° |
| 2026-04-15 17:01 | 60.89472 | -146.94946 | 24954 ft | 451 kts | 110° |
| 2026-04-15 17:02 | 60.88476 | -146.88845 | 25058 ft | 452 kts | 110° |
| 2026-04-15 17:02 | 60.87472 | -146.82712 | 25158 ft | 453 kts | 110° |
| 2026-04-15 17:02 | 60.86465 | -146.76586 | 25252 ft | 453 kts | 110° |
| 2026-04-15 17:02 | 60.85455 | -146.70460 | 25344 ft | 454 kts | 110° |
| 2026-04-15 17:03 | 60.84439 | -146.64322 | 25432 ft | 455 kts | 110° |
| 2026-04-15 17:03 | 60.83419 | -146.58177 | 25517 ft | 456 kts | 110° |
| 2026-04-15 17:03 | 60.82394 | -146.52026 | 25599 ft | 456 kts | 110° |
| 2026-04-15 17:03 | 60.81365 | -146.45872 | 25680 ft | 457 kts | 110° |
| 2026-04-15 17:04 | 60.80331 | -146.39707 | 25754 ft | 458 kts | 110° |
| 2026-04-15 17:04 | 60.79293 | -146.33539 | 25824 ft | 458 kts | 110° |
| 2026-04-15 17:04 | 60.78251 | -146.27368 | 25896 ft | 459 kts | 110° |
| 2026-04-15 17:04 | 60.77206 | -146.21202 | 25962 ft | 459 kts | 110° |
| 2026-04-15 17:05 | 60.76157 | -146.15028 | 26023 ft | 460 kts | 110° |
| 2026-04-15 17:05 | 60.75116 | -146.08926 | 26083 ft | 460 kts | 110° |
| 2026-04-15 17:05 | 60.74059 | -146.02749 | 26141 ft | 461 kts | 110° |
| 2026-04-15 17:05 | 60.72998 | -145.96569 | 26197 ft | 461 kts | 110° |
| 2026-04-15 17:06 | 60.71933 | -145.90387 | 26270 ft | 461 kts | 111° |
| 2026-04-15 17:06 | 60.70863 | -145.84200 | 26332 ft | 462 kts | 111° |
| 2026-04-15 17:06 | 60.69791 | -145.78019 | 26380 ft | 462 kts | 111° |
| 2026-04-15 17:06 | 60.68715 | -145.71833 | 26429 ft | 462 kts | 111° |
| 2026-04-15 17:07 | 60.67635 | -145.65645 | 26486 ft | 463 kts | 111° |
| 2026-04-15 17:07 | 60.66552 | -145.59464 | 26549 ft | 463 kts | 111° |
| 2026-04-15 17:07 | 60.65466 | -145.53286 | 26595 ft | 463 kts | 111° |
| 2026-04-15 17:07 | 60.64376 | -145.47103 | 26637 ft | 464 kts | 111° |
| 2026-04-15 17:08 | 60.63283 | -145.40923 | 26677 ft | 464 kts | 111° |
| 2026-04-15 17:08 | 60.62184 | -145.34733 | 26720 ft | 464 kts | 111° |
| 2026-04-15 17:08 | 60.61085 | -145.28560 | 26760 ft | 465 kts | 111° |
| 2026-04-15 17:08 | 60.59979 | -145.22373 | 26799 ft | 465 kts | 111° |
| 2026-04-15 17:09 | 60.58871 | -145.16191 | 26835 ft | 465 kts | 111° |
| 2026-04-15 17:09 | 60.57757 | -145.09996 | 26871 ft | 466 kts | 111° |
| 2026-04-15 17:09 | 60.56643 | -145.03819 | 26906 ft | 466 kts | 111° |
| 2026-04-15 17:09 | 60.55522 | -144.97628 | 26936 ft | 466 kts | 111° |
| 2026-04-15 17:10 | 60.54780 | -144.93540 | 26956 ft | 466 kts | 111° |
| 2026-04-15 17:10 | 60.53654 | -144.87352 | 26983 ft | 467 kts | 111° |
| 2026-04-15 17:10 | 60.52527 | -144.81178 | 27009 ft | 467 kts | 111° |
| 2026-04-15 17:10 | 60.51396 | -144.75005 | 27034 ft | 467 kts | 111° |
| 2026-04-15 17:11 | 60.50260 | -144.68818 | 27060 ft | 467 kts | 112° |
| 2026-04-15 17:11 | 60.49122 | -144.62644 | 27085 ft | 467 kts | 112° |
| 2026-04-15 17:11 | 60.47980 | -144.56468 | 27108 ft | 468 kts | 112° |
| 2026-04-15 17:12 | 60.45685 | -144.44117 | 27155 ft | 468 kts | 112° |
| 2026-04-15 17:12 | 60.44534 | -144.37951 | 27175 ft | 468 kts | 112° |
| 2026-04-15 17:12 | 60.43379 | -144.31788 | 27194 ft | 468 kts | 112° |
| 2026-04-15 17:12 | 60.42226 | -144.25644 | 27466 ft | 462 kts | 112° |
| 2026-04-15 17:13 | 60.41101 | -144.19662 | 28133 ft | 447 kts | 112° |
| 2026-04-15 17:13 | 60.40009 | -144.13864 | 28781 ft | 434 kts | 112° |
| 2026-04-15 17:13 | 60.38963 | -144.08321 | 29477 ft | 421 kts | 112° |
| 2026-04-15 17:13 | 60.37930 | -144.02871 | 30175 ft | 407 kts | 113° |
| 2026-04-15 17:14 | 60.36923 | -143.97604 | 30716 ft | 399 kts | 113° |
| 2026-04-15 17:14 | 60.35916 | -143.92360 | 30819 ft | 403 kts | 113° |
| 2026-04-15 17:14 | 60.33864 | -143.81691 | 30903 ft | 412 kts | 113° |
| 2026-04-15 17:15 | 60.31764 | -143.70819 | 30968 ft | 420 kts | 113° |
| 2026-04-15 17:15 | 60.29617 | -143.59760 | 31019 ft | 427 kts | 113° |
| 2026-04-15 17:16 | 60.27426 | -143.48543 | 31058 ft | 433 kts | 113° |
| 2026-04-15 17:16 | 60.25193 | -143.37171 | 31090 ft | 438 kts | 113° |
| 2026-04-15 17:17 | 60.22928 | -143.25706 | 31117 ft | 443 kts | 113° |
| 2026-04-15 17:17 | 60.20647 | -143.14220 | 31140 ft | 447 kts | 113° |
| 2026-04-15 17:18 | 60.18320 | -143.02575 | 31159 ft | 450 kts | 113° |
| 2026-04-15 17:18 | 60.15968 | -142.90865 | 31175 ft | 453 kts | 114° |
| 2026-04-15 17:19 | 60.13593 | -142.79114 | 31188 ft | 455 kts | 114° |
| 2026-04-15 17:19 | 60.11196 | -142.67319 | 31200 ft | 457 kts | 114° |
| 2026-04-15 17:20 | 60.08782 | -142.55512 | 31209 ft | 459 kts | 114° |
| 2026-04-15 17:20 | 60.06346 | -142.43667 | 31217 ft | 460 kts | 114° |
| 2026-04-15 17:21 | 60.03895 | -142.31816 | 31223 ft | 461 kts | 114° |
| 2026-04-15 17:21 | 60.01428 | -142.19953 | 31229 ft | 462 kts | 114° |
| 2026-04-15 17:22 | 59.98945 | -142.08088 | 31235 ft | 463 kts | 114° |
| 2026-04-15 17:22 | 59.96449 | -141.96224 | 31241 ft | 464 kts | 114° |
| 2026-04-15 17:23 | 59.93938 | -141.84362 | 31246 ft | 464 kts | 114° |
| 2026-04-15 17:23 | 59.91414 | -141.72504 | 31252 ft | 465 kts | 115° |
| 2026-04-15 17:24 | 59.88881 | -141.60670 | 31257 ft | 465 kts | 115° |
| 2026-04-15 17:24 | 59.86331 | -141.48830 | 31263 ft | 465 kts | 115° |
| 2026-04-15 17:25 | 59.83787 | -141.37079 | 31268 ft | 465 kts | 115° |
| 2026-04-15 17:25 | 59.81213 | -141.25259 | 31273 ft | 466 kts | 115° |
| 2026-04-15 17:26 | 59.78633 | -141.13477 | 31278 ft | 466 kts | 115° |
| 2026-04-15 17:26 | 59.76037 | -141.01690 | 31284 ft | 466 kts | 115° |
| 2026-04-15 17:27 | 59.73432 | -140.89927 | 31289 ft | 466 kts | 115° |
| 2026-04-15 17:27 | 59.70818 | -140.78188 | 31294 ft | 466 kts | 115° |
| 2026-04-15 17:28 | 59.68190 | -140.66455 | 31299 ft | 466 kts | 115° |
| 2026-04-15 17:28 | 59.65551 | -140.54734 | 31304 ft | 466 kts | 115° |
| 2026-04-15 17:29 | 59.62905 | -140.43048 | 31309 ft | 466 kts | 116° |
| 2026-04-15 17:29 | 59.60244 | -140.31358 | 31314 ft | 466 kts | 116° |
| 2026-04-15 17:30 | 59.57573 | -140.19695 | 31319 ft | 466 kts | 116° |
| 2026-04-15 17:30 | 59.54895 | -140.08061 | 31324 ft | 466 kts | 116° |
| 2026-04-15 17:31 | 59.52204 | -139.96432 | 31330 ft | 466 kts | 116° |
| 2026-04-15 17:31 | 59.49501 | -139.84817 | 31352 ft | 466 kts | 116° |
| 2026-04-15 17:32 | 59.48175 | -139.79126 | 31892 ft | 446 kts | 116° |
| 2026-04-15 17:32 | 59.46904 | -139.73687 | 31971 ft | 435 kts | 116° |
| 2026-04-15 17:32 | 59.44367 | -139.62888 | 32002 ft | 435 kts | 116° |
| 2026-04-15 17:33 | 59.41817 | -139.52092 | 32011 ft | 435 kts | 116° |
| 2026-04-15 17:33 | 59.39271 | -139.41375 | 32004 ft | 436 kts | 117° |
| 2026-04-15 17:34 | 59.36683 | -139.30531 | 32002 ft | 436 kts | 117° |
| 2026-04-15 17:34 | 59.34119 | -139.19842 | 32002 ft | 436 kts | 117° |
| 2026-04-15 17:35 | 59.31530 | -139.09100 | 32002 ft | 436 kts | 117° |
| 2026-04-15 17:35 | 59.28930 | -138.98364 | 32001 ft | 436 kts | 117° |
| 2026-04-15 17:36 | 59.26322 | -138.87651 | 32001 ft | 436 kts | 117° |
| 2026-04-15 17:36 | 59.23704 | -138.76949 | 32002 ft | 436 kts | 117° |
| 2026-04-15 17:37 | 59.21078 | -138.66264 | 32001 ft | 437 kts | 117° |
| 2026-04-15 17:37 | 59.18442 | -138.55591 | 32001 ft | 437 kts | 117° |
| 2026-04-15 17:38 | 59.15796 | -138.44931 | 32001 ft | 437 kts | 117° |
| 2026-04-15 17:38 | 59.13142 | -138.34289 | 32001 ft | 437 kts | 117° |
| 2026-04-15 17:39 | 59.10476 | -138.23657 | 31858 ft | 440 kts | 117° |
| 2026-04-15 17:39 | 59.09137 | -138.18336 | 31611 ft | 446 kts | 117° |
| 2026-04-15 17:39 | 59.07761 | -138.12884 | 31373 ft | 451 kts | 118° |
| 2026-04-15 17:40 | 59.06366 | -138.07370 | 31128 ft | 456 kts | 118° |
| 2026-04-15 17:40 | 59.04959 | -138.01826 | 30885 ft | 460 kts | 118° |
| 2026-04-15 17:40 | 59.03537 | -137.96233 | 30639 ft | 463 kts | 118° |
| 2026-04-15 17:40 | 59.02103 | -137.90607 | 30394 ft | 466 kts | 118° |
| 2026-04-15 17:41 | 59.00657 | -137.84947 | 30149 ft | 469 kts | 118° |
| 2026-04-15 17:41 | 58.99201 | -137.79261 | 29899 ft | 472 kts | 118° |
| 2026-04-15 17:41 | 58.97738 | -137.73560 | 29655 ft | 474 kts | 118° |
| 2026-04-15 17:41 | 58.96263 | -137.67830 | 29406 ft | 476 kts | 118° |
| 2026-04-15 17:42 | 58.94780 | -137.62085 | 29159 ft | 477 kts | 118° |
| 2026-04-15 17:42 | 58.93316 | -137.56423 | 28909 ft | 475 kts | 118° |
| 2026-04-15 17:42 | 58.91838 | -137.50720 | 28653 ft | 472 kts | 118° |
| 2026-04-15 17:42 | 58.90365 | -137.45052 | 28404 ft | 470 kts | 118° |
| 2026-04-15 17:43 | 58.88897 | -137.39417 | 28153 ft | 468 kts | 118° |
| 2026-04-15 17:43 | 58.87437 | -137.33824 | 27903 ft | 466 kts | 118° |
| 2026-04-15 17:43 | 58.85975 | -137.28243 | 27652 ft | 464 kts | 118° |
| 2026-04-15 17:43 | 58.84518 | -137.22691 | 27403 ft | 462 kts | 118° |
| 2026-04-15 17:44 | 58.83063 | -137.17162 | 27155 ft | 460 kts | 118° |
| 2026-04-15 17:44 | 58.81614 | -137.11670 | 26902 ft | 459 kts | 118° |
| 2026-04-15 17:44 | 58.80166 | -137.06193 | 26650 ft | 457 kts | 118° |
| 2026-04-15 17:44 | 58.78725 | -137.00754 | 26403 ft | 455 kts | 118° |
| 2026-04-15 17:45 | 58.77286 | -136.95341 | 26152 ft | 453 kts | 118° |
| 2026-04-15 17:45 | 58.75850 | -136.89949 | 25902 ft | 451 kts | 118° |
| 2026-04-15 17:45 | 58.74439 | -136.84660 | 25653 ft | 449 kts | 118° |
| 2026-04-15 17:45 | 58.73013 | -136.79331 | 25403 ft | 447 kts | 118° |
| 2026-04-15 17:46 | 58.71593 | -136.74037 | 25153 ft | 444 kts | 118° |
| 2026-04-15 17:46 | 58.70178 | -136.68770 | 24905 ft | 442 kts | 118° |
| 2026-04-15 17:46 | 58.68767 | -136.63533 | 24654 ft | 440 kts | 119° |
| 2026-04-15 17:46 | 58.67360 | -136.58323 | 24406 ft | 438 kts | 119° |
| 2026-04-15 17:47 | 58.65956 | -136.53134 | 24154 ft | 436 kts | 119° |
| 2026-04-15 17:47 | 58.64559 | -136.47982 | 23903 ft | 434 kts | 119° |
| 2026-04-15 17:47 | 58.63169 | -136.42868 | 23654 ft | 432 kts | 119° |
| 2026-04-15 17:47 | 58.61779 | -136.37766 | 23403 ft | 430 kts | 119° |
| 2026-04-15 17:48 | 58.60396 | -136.32699 | 23155 ft | 428 kts | 119° |
| 2026-04-15 17:48 | 58.59016 | -136.27654 | 22903 ft | 426 kts | 119° |
| 2026-04-15 17:48 | 58.57641 | -136.22637 | 22652 ft | 424 kts | 119° |
| 2026-04-15 17:48 | 58.56272 | -136.17653 | 22404 ft | 422 kts | 119° |
| 2026-04-15 17:49 | 58.54905 | -136.12690 | 22153 ft | 420 kts | 119° |
| 2026-04-15 17:49 | 58.53543 | -136.07751 | 21903 ft | 418 kts | 119° |
| 2026-04-15 17:49 | 58.52187 | -136.02843 | 21653 ft | 416 kts | 119° |
| 2026-04-15 17:49 | 58.50831 | -135.97944 | 21402 ft | 415 kts | 119° |
| 2026-04-15 17:50 | 58.49482 | -135.93081 | 21152 ft | 413 kts | 119° |
| 2026-04-15 17:50 | 58.48141 | -135.88253 | 20902 ft | 411 kts | 119° |
| 2026-04-15 17:50 | 58.46801 | -135.83435 | 20652 ft | 409 kts | 119° |
| 2026-04-15 17:50 | 58.45467 | -135.78648 | 20402 ft | 407 kts | 120° |
| 2026-04-15 17:51 | 58.44141 | -135.73899 | 20000 ft | 403 kts | 120° |
| 2026-04-15 17:51 | 58.42835 | -135.69216 | 19557 ft | 396 kts | 120° |
| 2026-04-15 17:51 | 58.41554 | -135.64615 | 19092 ft | 390 kts | 120° |
| 2026-04-15 17:51 | 58.40283 | -135.60072 | 18624 ft | 385 kts | 120° |
| 2026-04-15 17:52 | 58.39024 | -135.55615 | 18158 ft | 380 kts | 120° |
| 2026-04-15 17:52 | 58.37786 | -135.51271 | 17701 ft | 376 kts | 121° |
| 2026-04-15 17:52 | 58.36311 | -135.47210 | 17253 ft | 371 kts | 133° |
| 2026-04-15 17:52 | 58.34452 | -135.43860 | 16786 ft | 366 kts | 143° |
| 2026-04-15 17:53 | 58.32325 | -135.41250 | 16317 ft | 363 kts | 153° |
| 2026-04-15 17:53 | 58.30115 | -135.38966 | 15849 ft | 359 kts | 153° |
| 2026-04-15 17:53 | 58.27927 | -135.36714 | 15395 ft | 356 kts | 153° |
| 2026-04-15 17:53 | 58.25768 | -135.34453 | 14949 ft | 353 kts | 152° |
| 2026-04-15 17:54 | 58.23634 | -135.32197 | 14505 ft | 350 kts | 152° |
| 2026-04-15 17:54 | 58.21515 | -135.29960 | 14061 ft | 347 kts | 153° |
| 2026-04-15 17:54 | 58.19495 | -135.27494 | 13574 ft | 345 kts | 139° |
| 2026-04-15 17:54 | 58.18084 | -135.23863 | 13132 ft | 343 kts | 117° |
| 2026-04-15 17:55 | 58.17429 | -135.19507 | 12530 ft | 346 kts | 98° |
| 2026-04-15 17:55 | 58.17185 | -135.14978 | 12038 ft | 345 kts | 96° |
| 2026-04-15 17:55 | 58.16997 | -135.10467 | 11583 ft | 342 kts | 96° |
| 2026-04-15 17:55 | 58.16826 | -135.06004 | 11144 ft | 339 kts | 96° |
| 2026-04-15 17:56 | 58.16658 | -135.01583 | 10862 ft | 332 kts | 96° |
| 2026-04-15 17:56 | 58.16490 | -134.97258 | 10615 ft | 323 kts | 96° |
| 2026-04-15 17:56 | 58.16321 | -134.93072 | 10453 ft | 314 kts | 96° |
| 2026-04-15 17:56 | 58.16201 | -134.90390 | 10455 ft | 306 kts | 97° |
| 2026-04-15 17:57 | 58.16016 | -134.86412 | 10444 ft | 299 kts | 97° |
| 2026-04-15 17:57 | 58.15837 | -134.82512 | 10448 ft | 299 kts | 96° |
| 2026-04-15 17:57 | 58.15656 | -134.78488 | 10472 ft | 317 kts | 96° |
| 2026-04-15 17:57 | 58.15466 | -134.74195 | 10466 ft | 334 kts | 96° |
| 2026-04-15 17:58 | 58.15276 | -134.69831 | 10311 ft | 329 kts | 96° |
| 2026-04-15 17:58 | 58.15095 | -134.65589 | 10159 ft | 317 kts | 96° |
| 2026-04-15 17:58 | 58.14921 | -134.61492 | 10016 ft | 307 kts | 96° |
| 2026-04-15 17:58 | 58.14755 | -134.57556 | 9954 ft | 292 kts | 96° |
| 2026-04-15 17:59 | 58.14594 | -134.53767 | 9540 ft | 287 kts | 96° |
| 2026-04-15 17:59 | 58.14435 | -134.50055 | 9248 ft | 280 kts | 96° |
| 2026-04-15 17:59 | 58.14280 | -134.46425 | 8949 ft | 273 kts | 96° |
| 2026-04-15 17:59 | 58.14127 | -134.42878 | 8661 ft | 267 kts | 96° |
| 2026-04-15 18:00 | 58.13979 | -134.39422 | 8390 ft | 261 kts | 96° |
| 2026-04-15 18:00 | 58.13832 | -134.35990 | 8131 ft | 262 kts | 96° |
| 2026-04-15 18:00 | 58.13989 | -134.32477 | 7351 ft | 281 kts | 69° |
| 2026-04-15 18:00 | 58.14945 | -134.29329 | 6825 ft | 279 kts | 58° |
| 2026-04-15 18:01 | 58.16233 | -134.26577 | 6139 ft | 282 kts | 33° |
| 2026-04-15 18:01 | 58.18070 | -134.25391 | 5536 ft | 281 kts | 5° |
| 2026-04-15 18:01 | 58.19994 | -134.25831 | 4917 ft | 278 kts | 341° |
| 2026-04-15 18:01 | 58.21623 | -134.27581 | 4277 ft | 264 kts | 320° |
| 2026-04-15 18:02 | 58.22914 | -134.29920 | 3704 ft | 249 kts | 316° |
| 2026-04-15 18:02 | 58.24100 | -134.32200 | 3083 ft | 236 kts | 315° |
| 2026-04-15 18:02 | 58.25230 | -134.34390 | 2455 ft | 227 kts | 315° |
| 2026-04-15 18:02 | 58.26321 | -134.36491 | 1855 ft | 219 kts | 315° |
| 2026-04-15 18:03 | 58.27358 | -134.38463 | 1483 ft | 203 kts | 316° |
| 2026-04-15 18:03 | 58.28360 | -134.40276 | 1006 ft | 199 kts | 320° |
| 2026-04-15 18:03 | 58.29335 | -134.41891 | 922 ft | 178 kts | 319° |
| 2026-04-15 18:03 | 58.30209 | -134.43461 | 876 ft | 170 kts | 317° |
| 2026-04-15 18:04 | 58.31057 | -134.44992 | 718 ft | 160 kts | 320° |
| 2026-04-15 18:04 | 58.31878 | -134.46335 | 725 ft | 154 kts | 323° |
| 2026-04-15 18:04 | 58.32710 | -134.47545 | 696 ft | 145 kts | 328° |
| 2026-04-15 18:04 | 58.33567 | -134.48547 | 738 ft | 144 kts | 327° |
| 2026-04-15 18:05 | 58.34281 | -134.49850 | 645 ft | 143 kts | 306° |
| 2026-04-15 18:05 | 58.34676 | -134.51597 | 433 ft | 146 kts | 284° |
| 2026-04-15 18:05 | 58.34911 | -134.53475 | 248 ft | 148 kts | 287° |
| 2026-04-15 18:05 | 58.35180 | -134.55379 | 61 ft | 143 kts | 287° |
| 2026-04-15 18:06 | 58.35412 | -134.57035 | 34 ft | 109 kts | 284° |
| 2026-04-15 18:06 | 58.35539 | -134.57964 | 33 ft | 39 kts | 290° |
| 2026-04-15 18:06 | 58.35608 | -134.58038 | 33 ft | 7 kts | 1° |
| 2026-04-15 18:06 | 58.35658 | -134.58046 | 33 ft | 8 kts | 314° |